首页
METAR-TAF:

METAR-TAF

机场 :

Shaw Air Force Base

Sumter, 南卡罗来纳州, 美国

纬度: 33-58N, 经度: 080-29W, 海拔: 74米

当前天气观测

该预报发布于17分钟前的11:20 UTC
风速6节,风向
温度 18°C
湿度 100%
气压 1002 hPa
能見度: 8.0公里
多云层高于200英尺
多云层高于1000英尺
小雨, 轻雾

METAR: KSSC 241120Z AUTO 19006KT 5SM -RA BR BKN002 BKN010 18/18 A2960 RMK AO2 CIG 002V010 BKN002 V SCT SLP024 TSNO $

时间: 06:37 (11:37 UTC)

预报

该预报发布于2小时和7分钟前的09:30 UTC
预报有效从24日的 09点(UTC)到 25日的 14点(UTC)
风速20节,风向南转西南,有时为35节阵风
能見度: 9000
散云层高于800英尺
阴天层高于3500英尺
小阵雨
短暂存在
从 24日的 09点(UTC)到 24日的 15点(UTC)
风速25节,风向西,有时为31节阵风
散云层高于800英尺
阴天层高于1200英尺
成为
从 24日的 14点(UTC)到 24日的 15点(UTC)
风速20节,风向西,有时为35节阵风
能見度: 9000
多云层高于2000英尺
多云层高于30000英尺
小阵雨
成为
从 24日的 19点(UTC)到 24日的 20点(UTC)
风速15节,风向西,有时为25节阵风
能见度10公里或以上
散云层高于2500英尺
成为
从 24日的 23点(UTC)到 24日的 24点(UTC)
风速12节,风向西
能见度10公里或以上
天空无云

TAF: KSSC 240930Z 2409/2514 20020G35KT 9000 -SHRA SCT008 OVC035 520103 QNH2962INS TEMPO 2409/2415 27025G31KT SCT008 OVC012 BECMG 2414/2415 26020G35KT 9000 -SHRA BKN020 BKN300 510103 QNH2974INS BECMG 2419/2420 26015G25KT 9999 NSW SCT025 510103 QNH2978INS BECMG 2423/2424 27012KT 9999 SKC QNH2983INS TX19/2421Z TN02/2411Z

超过4000个机场的气象观测和天气预报(METAR&TAF报告)。

可查询的气象台以黄色和红色小点在地图上表示。

将鼠标移到小点上方,可查看气象台名称。

然后点击查看天气观测和预报。

如需切换地图:点击带黑十字的绿色按钮放大地图;点击带横线的绿色按钮缩小地图;或者点击绿色箭头查看邻近地区的地图。


METAR-TAF: